KFYV/FYV METAR and TAF weather

Enter ICAO airport designator
Station Type Date Time Source
KFYV METAR 2021/01/20 21:53 UTC NOAA

KFYV 202153Z 20013G19KT 10SM -RA FEW065 OVC085 06/M01 A3015 RMK AO2 RAB01E10B38 SLP217 P0000 T00561006


Station Type Date Time Source
KFYV Decoded METAR 2021/01/20 21:53 UTC NOAA

FAYETTEVILLE DRAKE FIELD, AR, United States (KFYV) 36-00N 94-10W 379M
Jan 20, 2021 - 04:53 PM EST / 2021.01.20 2153 UTC
Wind: from the SSW (200 degrees) at 15 MPH (13 KT) gusting to 22 MPH (19 KT):0
Visibility: 10 mile(s):0
Sky conditions: overcast
Weather: light rain
Precipitation last hour: A trace
Temperature: 42.1 F (5.6 C)
Dew Point: 30.9 F (-0.6 C)
Relative Humidity: 64%
Pressure (altimeter): 30.15 in. Hg (1020 hPa)
ob: KFYV 202153Z 20013G19KT 10SM -RA FEW065 OVC085 06/M01 A3015 RMK AO2 RAB01E10B38 SLP217 P0000 T00561006
cycle: 22

Station Type Date Time Source
KFYV TAF 2021/01/20 18:22 UTC NOAA

TAF KFYV 201720Z 2018/2118 20012KT P6SM BKN050
FM210000 21012KT P6SM OVC015
FM210600 23005KT P6SM OVC007
FM211200 VRB03KT 4SM BR OVC004

Example: see airport list